sensor_id;sensor_type;location;lat;lon;timestamp;pressure;altitude;pressure_sealevel;temperature;humidity
49723;BME280;43484;43.608;1.458;2023-04-21T00:00:51;98800.94;;;16.64;100.00
49723;BME280;43484;43.608;1.458;2023-04-21T00:03:19;98804.38;;;16.63;100.00
49723;BME280;43484;43.608;1.458;2023-04-21T00:05:49;98794.94;;;16.61;100.00
49723;BME280;43484;43.608;1.458;2023-04-21T00:08:16;98796.75;;;16.53;100.00
49723;BME280;43484;43.608;1.458;2023-04-21T00:10:43;98812.41;;;16.34;100.00
49723;BME280;43484;43.608;1.458;2023-04-21T00:13:10;98806.56;;;16.17;100.00
49723;BME280;43484;43.608;1.458;2023-04-21T00:15:37;98807.41;;;16.16;100.00
49723;BME280;43484;43.608;1.458;2023-04-21T00:18:04;98808.38;;;16.05;100.00
49723;BME280;43484;43.608;1.458;2023-04-21T00:20:31;98814.50;;;15.95;100.00
49723;BME280;43484;43.608;1.458;2023-04-21T00:22:58;98809.34;;;15.93;100.00
49723;BME280;43484;43.608;1.458;2023-04-21T00:25:25;98818.03;;;15.83;100.00
49723;BME280;43484;43.608;1.458;2023-04-21T00:27:51;98818.91;;;15.84;100.00
49723;BME280;43484;43.608;1.458;2023-04-21T00:30:18;98823.28;;;15.77;100.00
49723;BME280;43484;43.608;1.458;2023-04-21T00:32:44;98825.94;;;15.61;100.00
49723;BME280;43484;43.608;1.458;2023-04-21T00:35:11;98820.84;;;15.55;100.00
49723;BME280;43484;43.608;1.458;2023-04-21T00:37:38;98824.28;;;15.51;100.00
49723;BME280;43484;43.608;1.458;2023-04-21T00:40:06;98822.66;;;15.33;100.00
49723;BME280;43484;43.608;1.458;2023-04-21T00:42:33;98814.97;;;15.29;100.00
49723;BME280;43484;43.608;1.458;2023-04-21T00:44:59;98808.94;;;15.27;100.00
49723;BME280;43484;43.608;1.458;2023-04-21T00:47:26;98815.91;;;15.11;100.00
49723;BME280;43484;43.608;1.458;2023-04-21T00:49:53;98816.78;;;15.10;100.00
49723;BME280;43484;43.608;1.458;2023-04-21T00:52:20;98809.91;;;15.06;100.00
49723;BME280;43484;43.608;1.458;2023-04-21T00:54:47;98814.25;;;14.92;100.00
49723;BME280;43484;43.608;1.458;2023-04-21T00:57:13;98807.38;;;14.94;100.00
49723;BME280;43484;43.608;1.458;2023-04-21T00:59:40;98809.13;;;14.89;100.00
49723;BME280;43484;43.608;1.458;2023-04-21T01:02:07;98809.16;;;14.83;100.00
49723;BME280;43484;43.608;1.458;2023-04-21T01:04:34;98798.84;;;14.74;100.00
49723;BME280;43484;43.608;1.458;2023-04-21T01:07:04;98792.00;;;14.65;100.00
49723;BME280;43484;43.608;1.458;2023-04-21T01:09:33;98785.13;;;14.69;100.00
49723;BME280;43484;43.608;1.458;2023-04-21T01:12:03;98777.41;;;14.66;100.00
49723;BME280;43484;43.608;1.458;2023-04-21T01:14:30;98767.13;;;14.57;100.00
49723;BME280;43484;43.608;1.458;2023-04-21T01:16:57;98768.03;;;14.53;100.00
49723;BME280;43484;43.608;1.458;2023-04-21T01:19:27;98768.03;;;14.50;100.00
49723;BME280;43484;43.608;1.458;2023-04-21T01:21:55;98760.31;;;14.41;100.00
49723;BME280;43484;43.608;1.458;2023-04-21T01:27:02;98761.22;;;14.38;100.00
49723;BME280;43484;43.608;1.458;2023-04-21T01:29:33;98758.59;;;14.35;100.00
49723;BME280;43484;43.608;1.458;2023-04-21T01:32:12;98743.16;;;14.25;100.00
49723;BME280;43484;43.608;1.458;2023-04-21T01:34:40;98755.22;;;14.26;100.00
49723;BME280;43484;43.608;1.458;2023-04-21T01:37:19;98738.88;;;14.21;100.00
49723;BME280;43484;43.608;1.458;2023-04-21T01:39:49;98743.16;;;14.19;100.00
49723;BME280;43484;43.608;1.458;2023-04-21T01:42:21;98752.63;;;14.23;100.00
49723;BME280;43484;43.608;1.458;2023-04-21T01:44:48;98746.63;;;14.25;100.00
49723;BME280;43484;43.608;1.458;2023-04-21T01:47:16;98757.78;;;14.26;100.00
49723;BME280;43484;43.608;1.458;2023-04-21T01:49:43;98750.91;;;14.17;100.00
49723;BME280;43484;43.608;1.458;2023-04-21T01:52:10;98757.78;;;14.20;100.00
49723;BME280;43484;43.608;1.458;2023-04-21T01:54:36;98760.38;;;14.18;100.00
49723;BME280;43484;43.608;1.458;2023-04-21T01:57:03;98747.50;;;14.11;100.00
49723;BME280;43484;43.608;1.458;2023-04-21T01:59:30;98747.47;;;14.17;100.00
49723;BME280;43484;43.608;1.458;2023-04-21T02:01:56;98742.34;;;14.12;100.00
49723;BME280;43484;43.608;1.458;2023-04-21T02:04:23;98746.63;;;14.13;100.00
49723;BME280;43484;43.608;1.458;2023-04-21T02:06:50;98748.34;;;14.04;100.00
49723;BME280;43484;43.608;1.458;2023-04-21T02:09:16;98745.78;;;14.05;100.00
49723;BME280;43484;43.608;1.458;2023-04-21T02:11:43;98754.34;;;14.07;100.00
49723;BME280;43484;43.608;1.458;2023-04-21T02:14:10;98744.94;;;13.96;100.00
49723;BME280;43484;43.608;1.458;2023-04-21T02:16:37;98741.47;;;14.07;100.00
49723;BME280;43484;43.608;1.458;2023-04-21T02:19:04;98744.06;;;14.06;100.00
49723;BME280;43484;43.608;1.458;2023-04-21T02:21:31;98747.50;;;13.99;100.00
49723;BME280;43484;43.608;1.458;2023-04-21T02:23:57;98740.63;;;14.01;100.00
49723;BME280;43484;43.608;1.458;2023-04-21T02:26:24;98740.66;;;13.96;100.00
49723;BME280;43484;43.608;1.458;2023-04-21T02:28:51;98745.78;;;14.02;100.00
49723;BME280;43484;43.608;1.458;2023-04-21T02:31:17;98756.94;;;14.13;100.00
49723;BME280;43484;43.608;1.458;2023-04-21T02:33:44;98759.50;;;14.10;100.00
49723;BME280;43484;43.608;1.458;2023-04-21T02:36:12;98754.38;;;14.06;100.00
49723;BME280;43484;43.608;1.458;2023-04-21T02:38:39;98755.22;;;14.06;100.00
49723;BME280;43484;43.608;1.458;2023-04-21T02:41:05;98747.50;;;14.02;100.00
49723;BME280;43484;43.608;1.458;2023-04-21T02:43:32;98750.94;;;13.88;100.00
49723;BME280;43484;43.608;1.458;2023-04-21T02:45:59;98750.09;;;13.93;100.00
49723;BME280;43484;43.608;1.458;2023-04-21T02:48:25;98746.66;;;13.95;100.00
49723;BME280;43484;43.608;1.458;2023-04-21T02:50:52;98748.41;;;13.93;100.00
49723;BME280;43484;43.608;1.458;2023-04-21T02:53:19;98748.41;;;13.93;100.00
49723;BME280;43484;43.608;1.458;2023-04-21T02:55:46;98741.53;;;13.98;100.00
49723;BME280;43484;43.608;1.458;2023-04-21T02:58:13;98736.38;;;13.84;100.00
49723;BME280;43484;43.608;1.458;2023-04-21T03:00:40;98730.38;;;13.79;100.00
49723;BME280;43484;43.608;1.458;2023-04-21T03:03:07;98738.94;;;13.92;100.00
49723;BME280;43484;43.608;1.458;2023-04-21T03:05:34;98735.53;;;13.79;100.00
49723;BME280;43484;43.608;1.458;2023-04-21T03:08:01;98742.38;;;13.90;100.00
49723;BME280;43484;43.608;1.458;2023-04-21T03:10:27;98737.22;;;13.82;100.00
49723;BME280;43484;43.608;1.458;2023-04-21T03:12:54;98734.63;;;13.96;100.00
49723;BME280;43484;43.608;1.458;2023-04-21T03:15:21;98741.53;;;13.89;100.00
49723;BME280;43484;43.608;1.458;2023-04-21T03:17:48;98738.97;;;13.83;100.00
49723;BME280;43484;43.608;1.458;2023-04-21T03:20:15;98741.53;;;13.83;100.00
49723;BME280;43484;43.608;1.458;2023-04-21T03:22:42;98752.69;;;13.90;100.00
49723;BME280;43484;43.608;1.458;2023-04-21T03:25:08;98756.97;;;13.78;100.00
49723;BME280;43484;43.608;1.458;2023-04-21T03:27:36;98750.13;;;13.77;100.00
49723;BME280;43484;43.608;1.458;2023-04-21T03:30:03;98755.25;;;13.85;100.00
49723;BME280;43484;43.608;1.458;2023-04-21T03:32:30;98743.28;;;13.64;100.00
49723;BME280;43484;43.608;1.458;2023-04-21T03:34:57;98735.53;;;13.61;100.00
49723;BME280;43484;43.608;1.458;2023-04-21T03:37:23;98728.66;;;13.65;100.00
49723;BME280;43484;43.608;1.458;2023-04-21T03:39:50;98729.53;;;13.56;100.00
49723;BME280;43484;43.608;1.458;2023-04-21T03:42:16;98730.41;;;13.66;100.00
49723;BME280;43484;43.608;1.458;2023-04-21T03:44:43;98732.97;;;13.58;100.00
49723;BME280;43484;43.608;1.458;2023-04-21T03:47:10;98734.66;;;13.53;100.00
49723;BME280;43484;43.608;1.458;2023-04-21T03:49:36;98721.81;;;13.58;100.00
49723;BME280;43484;43.608;1.458;2023-04-21T03:52:03;98727.81;;;13.54;100.00
49723;BME280;43484;43.608;1.458;2023-04-21T03:54:29;98727.81;;;13.55;100.00
49723;BME280;43484;43.608;1.458;2023-04-21T03:56:56;98721.81;;;13.53;100.00
49723;BME280;43484;43.608;1.458;2023-04-21T03:59:22;98732.97;;;13.66;100.00
49723;BME280;43484;43.608;1.458;2023-04-21T04:01:49;98723.53;;;13.45;100.00
49723;BME280;43484;43.608;1.458;2023-04-21T04:04:16;98715.81;;;13.42;100.00
49723;BME280;43484;43.608;1.458;2023-04-21T04:06:43;98720.94;;;13.33;100.00
49723;BME280;43484;43.608;1.458;2023-04-21T04:09:10;98727.84;;;13.48;100.00
49723;BME280;43484;43.608;1.458;2023-04-21T04:11:36;98723.53;;;13.47;100.00
49723;BME280;43484;43.608;1.458;2023-04-21T04:14:03;98726.09;;;13.44;100.00
49723;BME280;43484;43.608;1.458;2023-04-21T04:16:30;98728.69;;;13.38;100.00
49723;BME280;43484;43.608;1.458;2023-04-21T04:18:56;98730.38;;;13.39;100.00
49723;BME280;43484;43.608;1.458;2023-04-21T04:21:23;98730.41;;;13.34;100.00
49723;BME280;43484;43.608;1.458;2023-04-21T04:23:49;98708.97;;;13.29;100.00
49723;BME280;43484;43.608;1.458;2023-04-21T04:26:19;98722.69;;;13.33;100.00
49723;BME280;43484;43.608;1.458;2023-04-21T04:28:48;98721.81;;;13.41;100.00
49723;BME280;43484;43.608;1.458;2023-04-21T04:31:14;98719.25;;;13.32;100.00
49723;BME280;43484;43.608;1.458;2023-04-21T04:33:43;98720.94;;;13.36;100.00
49723;BME280;43484;43.608;1.458;2023-04-21T04:36:10;98718.38;;;13.33;100.00
49723;BME280;43484;43.608;1.458;2023-04-21T04:38:39;98703.81;;;13.29;100.00
49723;BME280;43484;43.608;1.458;2023-04-21T04:41:07;98703.81;;;13.28;100.00
49723;BME280;43484;43.608;1.458;2023-04-21T04:43:34;98714.97;;;13.34;100.00
49723;BME280;43484;43.608;1.458;2023-04-21T04:46:04;98714.09;;;13.31;100.00
49723;BME280;43484;43.608;1.458;2023-04-21T04:48:31;98708.97;;;13.29;100.00
49723;BME280;43484;43.608;1.458;2023-04-21T04:50:58;98708.94;;;13.17;100.00
49723;BME280;43484;43.608;1.458;2023-04-21T04:53:27;98709.78;;;13.13;100.00
49723;BME280;43484;43.608;1.458;2023-04-21T04:55:53;98705.50;;;13.15;100.00
49723;BME280;43484;43.608;1.458;2023-04-21T04:58:20;98706.34;;;13.10;100.00
49723;BME280;43484;43.608;1.458;2023-04-21T05:00:47;98704.66;;;13.18;100.00
49723;BME280;43484;43.608;1.458;2023-04-21T05:03:14;98714.94;;;13.21;100.00
49723;BME280;43484;43.608;1.458;2023-04-21T05:05:41;98726.09;;;13.26;100.00
49723;BME280;43484;43.608;1.458;2023-04-21T05:08:07;98720.09;;;13.25;100.00
49723;BME280;43484;43.608;1.458;2023-04-21T05:10:34;98734.69;;;13.35;100.00
49723;BME280;43484;43.608;1.458;2023-04-21T05:13:01;98732.97;;;13.34;100.00
49723;BME280;43484;43.608;1.458;2023-04-21T05:15:27;98725.22;;;13.28;100.00
49723;BME280;43484;43.608;1.458;2023-04-21T05:17:54;98721.78;;;13.26;100.00
49723;BME280;43484;43.608;1.458;2023-04-21T05:20:20;98723.53;;;13.26;100.00
49723;BME280;43484;43.608;1.458;2023-04-21T05:22:48;98720.09;;;13.24;100.00
49723;BME280;43484;43.608;1.458;2023-04-21T05:25:14;98722.66;;;13.30;100.00
49723;BME280;43484;43.608;1.458;2023-04-21T05:27:41;98721.78;;;13.23;100.00
49723;BME280;43484;43.608;1.458;2023-04-21T05:30:09;98715.81;;;13.24;100.00
49723;BME280;43484;43.608;1.458;2023-04-21T05:32:35;98716.66;;;13.20;100.00
49723;BME280;43484;43.608;1.458;2023-04-21T05:35:02;98710.66;;;13.21;100.00
49723;BME280;43484;43.608;1.458;2023-04-21T05:37:29;98713.25;;;13.23;100.00
49723;BME280;43484;43.608;1.458;2023-04-21T05:39:56;98716.66;;;13.20;100.00
49723;BME280;43484;43.608;1.458;2023-04-21T05:42:22;98725.22;;;13.30;100.00
49723;BME280;43484;43.608;1.458;2023-04-21T05:44:49;98731.25;;;13.29;100.00
49723;BME280;43484;43.608;1.458;2023-04-21T05:47:16;98729.50;;;13.26;100.00
49723;BME280;43484;43.608;1.458;2023-04-21T05:49:42;98728.66;;;13.30;100.00
49723;BME280;43484;43.608;1.458;2023-04-21T05:52:15;98731.22;;;13.36;100.00
49723;BME280;43484;43.608;1.458;2023-04-21T05:54:43;98743.25;;;13.52;100.00
49723;BME280;43484;43.608;1.458;2023-04-21T05:57:09;98734.66;;;13.41;100.00
49723;BME280;43484;43.608;1.458;2023-04-21T05:59:36;98741.53;;;13.42;100.00
49723;BME280;43484;43.608;1.458;2023-04-21T06:02:03;98740.66;;;13.45;100.00
49723;BME280;43484;43.608;1.458;2023-04-21T06:04:29;98738.97;;;13.39;100.00
49723;BME280;43484;43.608;1.458;2023-04-21T06:06:57;98732.97;;;13.54;100.00
49723;BME280;43484;43.608;1.458;2023-04-21T06:09:23;98750.97;;;13.57;100.00
49723;BME280;43484;43.608;1.458;2023-04-21T06:11:50;98757.84;;;13.64;100.00
49723;BME280;43484;43.608;1.458;2023-04-21T06:14:16;98763.84;;;13.63;100.00
49723;BME280;43484;43.608;1.458;2023-04-21T06:16:43;98759.53;;;13.63;100.00
49723;BME280;43484;43.608;1.458;2023-04-21T06:19:10;98756.97;;;13.62;100.00
49723;BME280;43484;43.608;1.458;2023-04-21T06:21:36;98756.13;;;13.69;100.00
49723;BME280;43484;43.608;1.458;2023-04-21T06:24:03;98750.09;;;13.70;100.00
49723;BME280;43484;43.608;1.458;2023-04-21T06:26:29;98759.56;;;13.75;100.00
49723;BME280;43484;43.608;1.458;2023-04-21T06:28:56;98753.53;;;13.82;100.00
49723;BME280;43484;43.608;1.458;2023-04-21T06:31:23;98756.13;;;13.82;100.00
49723;BME280;43484;43.608;1.458;2023-04-21T06:33:49;98763.84;;;13.79;100.00
49723;BME280;43484;43.608;1.458;2023-04-21T06:36:16;98757.84;;;13.79;100.00
49723;BME280;43484;43.608;1.458;2023-04-21T06:38:43;98754.41;;;13.83;100.00
49723;BME280;43484;43.608;1.458;2023-04-21T06:41:10;98755.25;;;13.90;100.00
49723;BME280;43484;43.608;1.458;2023-04-21T06:43:37;98758.69;;;13.98;100.00
49723;BME280;43484;43.608;1.458;2023-04-21T06:46:03;98760.38;;;13.99;100.00
49723;BME280;43484;43.608;1.458;2023-04-21T06:48:30;98753.50;;;14.04;100.00
49723;BME280;43484;43.608;1.458;2023-04-21T06:50:57;98765.53;;;14.06;100.00
49723;BME280;43484;43.608;1.458;2023-04-21T06:53:24;98765.53;;;14.08;100.00
49723;BME280;43484;43.608;1.458;2023-04-21T06:55:51;98767.22;;;14.18;100.00
49723;BME280;43484;43.608;1.458;2023-04-21T06:58:18;98769.78;;;14.21;100.00
49723;BME280;43484;43.608;1.458;2023-04-21T07:00:46;98772.41;;;14.28;100.00
49723;BME280;43484;43.608;1.458;2023-04-21T07:03:13;98773.25;;;14.33;100.00
49723;BME280;43484;43.608;1.458;2023-04-21T07:05:40;98772.34;;;14.37;100.00
49723;BME280;43484;43.608;1.458;2023-04-21T07:08:06;98780.97;;;14.35;100.00
49723;BME280;43484;43.608;1.458;2023-04-21T07:10:33;98783.53;;;14.39;100.00
49723;BME280;43484;43.608;1.458;2023-04-21T07:12:59;98780.06;;;14.45;100.00
49723;BME280;43484;43.608;1.458;2023-04-21T07:15:26;98774.06;;;14.46;100.00
49723;BME280;43484;43.608;1.458;2023-04-21T07:17:53;98783.50;;;14.50;100.00
49723;BME280;43484;43.608;1.458;2023-04-21T07:20:19;98786.91;;;14.59;100.00
49723;BME280;43484;43.608;1.458;2023-04-21T07:22:46;98794.59;;;14.65;100.00
49723;BME280;43484;43.608;1.458;2023-04-21T07:25:12;98799.75;;;14.68;100.00
49723;BME280;43484;43.608;1.458;2023-04-21T07:27:39;98790.25;;;14.78;100.00
49723;BME280;43484;43.608;1.458;2023-04-21T07:30:06;98795.38;;;14.84;100.00
49723;BME280;43484;43.608;1.458;2023-04-21T07:32:33;98792.78;;;14.90;100.00
49723;BME280;43484;43.608;1.458;2023-04-21T07:35:00;98797.06;;;14.92;100.00
49723;BME280;43484;43.608;1.458;2023-04-21T07:37:27;98798.72;;;15.02;100.00
49723;BME280;43484;43.608;1.458;2023-04-21T07:39:54;98801.28;;;15.10;100.00
49723;BME280;43484;43.608;1.458;2023-04-21T07:42:20;98805.56;;;15.19;100.00
49723;BME280;43484;43.608;1.458;2023-04-21T07:44:48;98810.69;;;15.23;100.00
49723;BME280;43484;43.608;1.458;2023-04-21T07:47:14;98811.50;;;15.30;100.00
49723;BME280;43484;43.608;1.458;2023-04-21T07:49:41;98808.88;;;15.33;100.00
49723;BME280;43484;43.608;1.458;2023-04-21T07:52:08;98799.41;;;15.38;100.00
49723;BME280;43484;43.608;1.458;2023-04-21T07:54:35;98799.41;;;15.41;100.00
49723;BME280;43484;43.608;1.458;2023-04-21T07:57:01;98805.34;;;15.55;100.00
49723;BME280;43484;43.608;1.458;2023-04-21T07:59:29;98812.16;;;15.65;100.00
49723;BME280;43484;43.608;1.458;2023-04-21T08:01:56;98808.66;;;15.72;100.00
49723;BME280;43484;43.608;1.458;2023-04-21T08:04:22;98819.84;;;15.75;100.00
49723;BME280;43484;43.608;1.458;2023-04-21T08:06:49;98812.06;;;15.78;100.00
49723;BME280;43484;43.608;1.458;2023-04-21T08:09:16;98818.88;;;15.87;100.00
49723;BME280;43484;43.608;1.458;2023-04-21T08:11:43;98810.22;;;15.94;100.00
49723;BME280;43484;43.608;1.458;2023-04-21T08:14:10;98817.88;;;16.01;100.00
49723;BME280;43484;43.608;1.458;2023-04-21T08:16:37;98821.25;;;16.12;100.00
49723;BME280;43484;43.608;1.458;2023-04-21T08:19:06;98832.41;;;16.14;100.00
49723;BME280;43484;43.608;1.458;2023-04-21T08:21:33;98828.94;;;16.18;100.00
49723;BME280;43484;43.608;1.458;2023-04-21T08:24:00;98828.06;;;16.19;100.00
49723;BME280;43484;43.608;1.458;2023-04-21T08:26:26;98812.50;;;16.25;100.00
49723;BME280;43484;43.608;1.458;2023-04-21T08:28:55;98827.09;;;16.29;100.00
49723;BME280;43484;43.608;1.458;2023-04-21T08:31:22;98827.97;;;16.28;100.00
49723;BME280;43484;43.608;1.458;2023-04-21T08:33:49;98823.66;;;16.32;100.00
49723;BME280;43484;43.608;1.458;2023-04-21T08:36:27;98833.06;;;16.38;100.00
49723;BME280;43484;43.608;1.458;2023-04-21T08:38:55;98830.41;;;16.47;100.00
49723;BME280;43484;43.608;1.458;2023-04-21T08:41:23;98834.63;;;16.55;100.00
49723;BME280;43484;43.608;1.458;2023-04-21T08:43:50;98837.19;;;16.58;100.00
49723;BME280;43484;43.608;1.458;2023-04-21T08:46:17;98830.25;;;16.62;100.00
49723;BME280;43484;43.608;1.458;2023-04-21T08:48:45;98820.66;;;16.70;100.00
49723;BME280;43484;43.608;1.458;2023-04-21T08:51:19;98815.44;;;16.76;100.00
49723;BME280;43484;43.608;1.458;2023-04-21T08:53:46;98817.09;;;16.83;100.00
49723;BME280;43484;43.608;1.458;2023-04-21T08:56:13;98815.22;;;16.94;100.00
49723;BME280;43484;43.608;1.458;2023-04-21T08:58:40;98804.78;;;17.00;100.00
49723;BME280;43484;43.608;1.458;2023-04-21T09:01:07;98820.25;;;17.06;100.00
49723;BME280;43484;43.608;1.458;2023-04-21T09:03:34;98837.47;;;17.08;100.00
49723;BME280;43484;43.608;1.458;2023-04-21T09:06:04;98835.66;;;17.13;100.00
49723;BME280;43484;43.608;1.458;2023-04-21T09:08:33;98845.16;;;17.14;100.00
49723;BME280;43484;43.608;1.458;2023-04-21T09:11:00;98840.84;;;17.13;100.00
49723;BME280;43484;43.608;1.458;2023-04-21T09:16:01;98842.47;;;17.22;100.00
49723;BME280;43484;43.608;1.458;2023-04-21T09:18:30;98846.72;;;17.26;100.00
49723;BME280;43484;43.608;1.458;2023-04-21T09:21:10;98844.00;;;17.35;100.00
49723;BME280;43484;43.608;1.458;2023-04-21T09:23:47;98834.44;;;17.40;100.00
49723;BME280;43484;43.608;1.458;2023-04-21T09:26:15;98842.19;;;17.41;100.00
49723;BME280;43484;43.608;1.458;2023-04-21T09:28:43;98842.13;;;17.49;100.00
49723;BME280;43484;43.608;1.458;2023-04-21T09:31:18;98836.81;;;17.57;100.00
49723;BME280;43484;43.608;1.458;2023-04-21T09:33:52;98829.94;;;17.56;100.00
49723;BME280;43484;43.608;1.458;2023-04-21T09:36:26;98829.88;;;17.59;100.00
49723;BME280;43484;43.608;1.458;2023-04-21T09:38:59;98837.63;;;17.60;100.00
49723;BME280;43484;43.608;1.458;2023-04-21T09:41:30;98838.47;;;17.62;100.00
49723;BME280;43484;43.608;1.458;2023-04-21T09:43:57;98835.00;;;17.65;100.00
49723;BME280;43484;43.608;1.458;2023-04-21T09:46:31;98836.38;;;17.85;100.00
49723;BME280;43484;43.608;1.458;2023-04-21T09:49:02;98836.38;;;17.85;100.00
49723;BME280;43484;43.608;1.458;2023-04-21T09:51:30;98839.06;;;17.81;100.00
49723;BME280;43484;43.608;1.458;2023-04-21T09:54:11;98838.00;;;17.92;100.00
49723;BME280;43484;43.608;1.458;2023-04-21T09:56:56;98826.59;;;18.04;100.00
49723;BME280;43484;43.608;1.458;2023-04-21T09:59:25;98837.03;;;17.99;100.00
49723;BME280;43484;43.608;1.458;2023-04-21T10:01:54;98836.88;;;18.10;100.00
49723;BME280;43484;43.608;1.458;2023-04-21T10:04:24;98828.19;;;18.12;100.00
49723;BME280;43484;43.608;1.458;2023-04-21T10:06:52;98822.81;;;18.23;100.00
49723;BME280;43484;43.608;1.458;2023-04-21T10:09:21;98829.69;;;18.27;100.00
49723;BME280;43484;43.608;1.458;2023-04-21T10:11:48;98824.53;;;18.22;100.00
49723;BME280;43484;43.608;1.458;2023-04-21T10:14:16;98824.53;;;18.22;100.00
49723;BME280;43484;43.608;1.458;2023-04-21T10:16:43;98832.22;;;18.30;100.00
49723;BME280;43484;43.608;1.458;2023-04-21T10:19:23;98826.03;;;18.37;100.00
49723;BME280;43484;43.608;1.458;2023-04-21T10:21:51;98835.38;;;18.45;100.00
49723;BME280;43484;43.608;1.458;2023-04-21T10:24:20;98836.22;;;18.47;100.00
49723;BME280;43484;43.608;1.458;2023-04-21T10:26:49;98826.63;;;18.52;100.00
49723;BME280;43484;43.608;1.458;2023-04-21T10:29:28;98822.88;;;18.68;100.00
49723;BME280;43484;43.608;1.458;2023-04-21T10:32:05;98827.97;;;18.73;100.00
49723;BME280;43484;43.608;1.458;2023-04-21T10:34:36;98826.28;;;18.70;100.00
49723;BME280;43484;43.608;1.458;2023-04-21T10:49:58;98825.22;;;18.81;100.00
49723;BME280;43484;43.608;1.458;2023-04-21T10:52:30;98826.84;;;18.86;100.00
49723;BME280;43484;43.608;1.458;2023-04-21T10:57:33;98826.44;;;19.07;100.00
49723;BME280;43484;43.608;1.458;2023-04-21T11:00:01;98821.94;;;19.14;100.00
49723;BME280;43484;43.608;1.458;2023-04-21T11:02:32;98809.78;;;19.16;100.00
49723;BME280;43484;43.608;1.458;2023-04-21T11:05:04;98815.75;;;19.19;100.00
49723;BME280;43484;43.608;1.458;2023-04-21T11:07:31;98812.28;;;19.20;100.00
49723;BME280;43484;43.608;1.458;2023-04-21T11:10:05;98811.25;;;19.30;100.00
49723;BME280;43484;43.608;1.458;2023-04-21T11:12:35;98803.31;;;19.36;100.00
49723;BME280;43484;43.608;1.458;2023-04-21T11:15:07;98796.09;;;19.49;100.00
49723;BME280;43484;43.608;1.458;2023-04-21T11:17:35;98809.91;;;19.49;100.00
49723;BME280;43484;43.608;1.458;2023-04-21T11:20:05;98803.06;;;19.47;100.00
49723;BME280;43484;43.608;1.458;2023-04-21T11:22:32;98801.28;;;19.49;100.00
49723;BME280;43484;43.608;1.458;2023-04-21T11:24:59;98795.19;;;19.50;100.00
49723;BME280;43484;43.608;1.458;2023-04-21T11:27:27;98807.28;;;19.52;100.00
49723;BME280;43484;43.608;1.458;2023-04-21T11:29:56;98806.34;;;19.55;100.00
49723;BME280;43484;43.608;1.458;2023-04-21T11:32:23;98812.13;;;19.66;100.00
49723;BME280;43484;43.608;1.458;2023-04-21T11:34:50;98801.63;;;19.72;100.00
49723;BME280;43484;43.608;1.458;2023-04-21T11:37:23;98793.75;;;19.75;100.00
49723;BME280;43484;43.608;1.458;2023-04-21T11:39:55;98784.91;;;19.82;100.00
49723;BME280;43484;43.608;1.458;2023-04-21T11:42:22;98776.94;;;19.88;100.00
49723;BME280;43484;43.608;1.458;2023-04-21T11:44:48;98772.44;;;19.94;100.00
49723;BME280;43484;43.608;1.458;2023-04-21T11:49:58;98780.88;;;20.04;100.00
49723;BME280;43484;43.608;1.458;2023-04-21T11:52:29;98781.50;;;20.15;100.00
49723;BME280;43484;43.608;1.458;2023-04-21T11:55:02;98781.25;;;20.24;100.00
49723;BME280;43484;43.608;1.458;2023-04-21T11:57:30;98777.84;;;20.22;100.00
49723;BME280;43484;43.608;1.458;2023-04-21T12:00:03;98767.34;;;20.25;100.00
49723;BME280;43484;43.608;1.458;2023-04-21T12:02:32;98758.66;;;20.26;100.00
49723;BME280;43484;43.608;1.458;2023-04-21T12:05:07;98768.72;;;20.38;100.00
49723;BME280;43484;43.608;1.458;2023-04-21T12:07:43;98767.13;;;20.34;100.00
49723;BME280;43484;43.608;1.458;2023-04-21T12:10:13;98756.00;;;20.29;100.00
49723;BME280;43484;43.608;1.458;2023-04-21T12:12:41;98768.91;;;20.32;100.00
49723;BME280;43484;43.608;1.458;2023-04-21T12:15:09;98757.56;;;20.35;100.00
49723;BME280;43484;43.608;1.458;2023-04-21T12:17:43;98773.16;;;20.35;100.00
49723;BME280;43484;43.608;1.458;2023-04-21T12:20:11;98769.63;;;20.37;100.00
49723;BME280;43484;43.608;1.458;2023-04-21T12:22:38;98763.38;;;20.44;100.00
49723;BME280;43484;43.608;1.458;2023-04-21T12:25:05;98766.09;;;20.40;100.00
49723;BME280;43484;43.608;1.458;2023-04-21T12:27:34;98766.84;;;20.43;100.00
49723;BME280;43484;43.608;1.458;2023-04-21T12:30:01;98773.75;;;20.46;100.00
49723;BME280;43484;43.608;1.458;2023-04-21T12:32:29;98767.63;;;20.47;100.00
49723;BME280;43484;43.608;1.458;2023-04-21T12:34:56;98763.63;;;20.35;100.00
49723;BME280;43484;43.608;1.458;2023-04-21T12:37:22;98752.97;;;20.44;100.00
49723;BME280;43484;43.608;1.458;2023-04-21T12:39:49;98762.34;;;20.50;100.00
49723;BME280;43484;43.608;1.458;2023-04-21T12:42:15;98769.28;;;20.51;100.00
49723;BME280;43484;43.608;1.458;2023-04-21T12:44:42;98758.84;;;20.51;100.00
49723;BME280;43484;43.608;1.458;2023-04-21T12:47:08;98739.88;;;20.47;100.00
49723;BME280;43484;43.608;1.458;2023-04-21T12:49:35;98737.19;;;20.50;100.00
49723;BME280;43484;43.608;1.458;2023-04-21T12:52:03;98740.59;;;20.52;100.00
49723;BME280;43484;43.608;1.458;2023-04-21T12:54:31;98744.84;;;20.56;100.00
49723;BME280;43484;43.608;1.458;2023-04-21T12:56:58;98749.91;;;20.61;100.00
49723;BME280;43484;43.608;1.458;2023-04-21T12:59:24;98739.66;;;20.55;100.00
49723;BME280;43484;43.608;1.458;2023-04-21T13:01:51;98736.94;;;20.59;100.00
49723;BME280;43484;43.608;1.458;2023-04-21T13:04:18;98727.34;;;20.60;100.00
49723;BME280;43484;43.608;1.458;2023-04-21T13:06:45;98741.19;;;20.62;100.00
49723;BME280;43484;43.608;1.458;2023-04-21T13:09:12;98730.72;;;20.63;100.00
49723;BME280;43484;43.608;1.458;2023-04-21T13:11:38;98735.88;;;20.65;100.00
49723;BME280;43484;43.608;1.458;2023-04-21T13:14:05;98726.47;;;20.61;100.00
49723;BME280;43484;43.608;1.458;2023-04-21T13:16:32;98730.91;;;20.57;100.00